sensor_id;sensor_type;location;lat;lon;timestamp;P1;durP1;ratioP1;P2;durP2;ratioP2
28028;SDS011;15345;59.364;18.016;2023-12-20T00:01:06;13.63;;;2.90;;
28028;SDS011;15345;59.364;18.016;2023-12-20T00:02:25;14.40;;;2.20;;
28028;SDS011;15345;59.364;18.016;2023-12-20T00:03:45;18.17;;;2.35;;
28028;SDS011;15345;59.364;18.016;2023-12-20T00:05:04;11.10;;;2.20;;
28028;SDS011;15345;59.364;18.016;2023-12-20T00:06:23;14.85;;;3.00;;
28028;SDS011;15345;59.364;18.016;2023-12-20T00:07:42;15.55;;;2.67;;
28028;SDS011;15345;59.364;18.016;2023-12-20T00:09:00;9.48;;;2.42;;
28028;SDS011;15345;59.364;18.016;2023-12-20T00:10:19;12.85;;;2.80;;
28028;SDS011;15345;59.364;18.016;2023-12-20T00:11:39;15.52;;;2.25;;
28028;SDS011;15345;59.364;18.016;2023-12-20T00:13:00;10.73;;;2.08;;
28028;SDS011;15345;59.364;18.016;2023-12-20T00:14:18;16.38;;;2.00;;
28028;SDS011;15345;59.364;18.016;2023-12-20T00:15:37;18.55;;;2.38;;
28028;SDS011;15345;59.364;18.016;2023-12-20T00:16:57;17.02;;;2.67;;
28028;SDS011;15345;59.364;18.016;2023-12-20T00:18:16;13.85;;;2.25;;
28028;SDS011;15345;59.364;18.016;2023-12-20T00:19:35;12.95;;;1.88;;
28028;SDS011;15345;59.364;18.016;2023-12-20T00:20:53;12.40;;;1.98;;
28028;SDS011;15345;59.364;18.016;2023-12-20T00:22:12;11.43;;;1.63;;
28028;SDS011;15345;59.364;18.016;2023-12-20T00:23:32;14.73;;;3.10;;
28028;SDS011;15345;59.364;18.016;2023-12-20T00:24:51;12.70;;;2.67;;
28028;SDS011;15345;59.364;18.016;2023-12-20T00:26:10;13.60;;;2.45;;
28028;SDS011;15345;59.364;18.016;2023-12-20T00:27:29;19.15;;;2.83;;
28028;SDS011;15345;59.364;18.016;2023-12-20T00:28:48;13.75;;;2.03;;
28028;SDS011;15345;59.364;18.016;2023-12-20T00:30:07;17.55;;;2.90;;
28028;SDS011;15345;59.364;18.016;2023-12-20T00:31:26;14.65;;;1.73;;
28028;SDS011;15345;59.364;18.016;2023-12-20T00:32:45;13.75;;;2.05;;
28028;SDS011;15345;59.364;18.016;2023-12-20T00:34:07;15.15;;;2.55;;
28028;SDS011;15345;59.364;18.016;2023-12-20T00:35:26;12.18;;;1.60;;
28028;SDS011;15345;59.364;18.016;2023-12-20T00:36:44;11.40;;;2.50;;
28028;SDS011;15345;59.364;18.016;2023-12-20T00:38:04;15.02;;;1.90;;
28028;SDS011;15345;59.364;18.016;2023-12-20T00:39:24;16.85;;;2.30;;
28028;SDS011;15345;59.364;18.016;2023-12-20T00:40:43;9.27;;;2.13;;
28028;SDS011;15345;59.364;18.016;2023-12-20T00:42:02;13.40;;;2.25;;
28028;SDS011;15345;59.364;18.016;2023-12-20T00:43:21;11.20;;;2.20;;
28028;SDS011;15345;59.364;18.016;2023-12-20T00:44:40;15.73;;;3.13;;
28028;SDS011;15345;59.364;18.016;2023-12-20T00:46:00;17.88;;;2.60;;
28028;SDS011;15345;59.364;18.016;2023-12-20T00:47:19;13.13;;;2.47;;
28028;SDS011;15345;59.364;18.016;2023-12-20T00:48:38;15.77;;;1.83;;
28028;SDS011;15345;59.364;18.016;2023-12-20T00:49:57;12.18;;;2.08;;
28028;SDS011;15345;59.364;18.016;2023-12-20T00:51:16;12.02;;;2.33;;
28028;SDS011;15345;59.364;18.016;2023-12-20T00:52:35;15.88;;;2.58;;
28028;SDS011;15345;59.364;18.016;2023-12-20T00:53:54;12.90;;;2.20;;
28028;SDS011;15345;59.364;18.016;2023-12-20T00:55:14;18.45;;;1.98;;
28028;SDS011;15345;59.364;18.016;2023-12-20T00:56:32;16.45;;;2.28;;
28028;SDS011;15345;59.364;18.016;2023-12-20T00:57:51;18.20;;;2.63;;
28028;SDS011;15345;59.364;18.016;2023-12-20T00:59:12;16.42;;;2.80;;
28028;SDS011;15345;59.364;18.016;2023-12-20T01:00:31;17.27;;;2.72;;
28028;SDS011;15345;59.364;18.016;2023-12-20T01:01:50;13.02;;;2.15;;
28028;SDS011;15345;59.364;18.016;2023-12-20T01:03:10;21.30;;;2.83;;
28028;SDS011;15345;59.364;18.016;2023-12-20T01:04:28;15.50;;;3.13;;
28028;SDS011;15345;59.364;18.016;2023-12-20T01:05:50;19.73;;;2.70;;
28028;SDS011;15345;59.364;18.016;2023-12-20T01:07:09;15.90;;;2.78;;
28028;SDS011;15345;59.364;18.016;2023-12-20T01:08:28;22.27;;;2.85;;
28028;SDS011;15345;59.364;18.016;2023-12-20T01:09:47;21.20;;;3.00;;
28028;SDS011;15345;59.364;18.016;2023-12-20T01:11:06;14.82;;;2.03;;
28028;SDS011;15345;59.364;18.016;2023-12-20T01:12:25;19.80;;;2.42;;
28028;SDS011;15345;59.364;18.016;2023-12-20T01:13:44;10.88;;;2.22;;
28028;SDS011;15345;59.364;18.016;2023-12-20T01:15:03;27.20;;;2.67;;
28028;SDS011;15345;59.364;18.016;2023-12-20T01:16:22;19.77;;;2.72;;
28028;SDS011;15345;59.364;18.016;2023-12-20T01:17:41;13.57;;;2.63;;
28028;SDS011;15345;59.364;18.016;2023-12-20T01:19:00;18.27;;;2.92;;
28028;SDS011;15345;59.364;18.016;2023-12-20T01:20:19;15.43;;;3.13;;
28028;SDS011;15345;59.364;18.016;2023-12-20T01:21:39;15.80;;;2.58;;
28028;SDS011;15345;59.364;18.016;2023-12-20T01:22:58;12.60;;;2.53;;
28028;SDS011;15345;59.364;18.016;2023-12-20T01:24:17;13.60;;;3.05;;
28028;SDS011;15345;59.364;18.016;2023-12-20T01:25:35;21.60;;;3.58;;
28028;SDS011;15345;59.364;18.016;2023-12-20T01:26:55;20.90;;;3.30;;
28028;SDS011;15345;59.364;18.016;2023-12-20T01:28:14;18.52;;;2.88;;
28028;SDS011;15345;59.364;18.016;2023-12-20T01:29:33;16.88;;;2.78;;
28028;SDS011;15345;59.364;18.016;2023-12-20T01:30:52;11.52;;;2.00;;
28028;SDS011;15345;59.364;18.016;2023-12-20T01:32:11;17.48;;;2.10;;
28028;SDS011;15345;59.364;18.016;2023-12-20T01:33:30;14.50;;;2.55;;
28028;SDS011;15345;59.364;18.016;2023-12-20T01:34:49;28.65;;;3.53;;
28028;SDS011;15345;59.364;18.016;2023-12-20T01:36:08;21.38;;;3.38;;
28028;SDS011;15345;59.364;18.016;2023-12-20T01:37:27;15.30;;;2.40;;
28028;SDS011;15345;59.364;18.016;2023-12-20T01:38:48;15.10;;;2.80;;
28028;SDS011;15345;59.364;18.016;2023-12-20T01:40:07;16.25;;;2.92;;
28028;SDS011;15345;59.364;18.016;2023-12-20T01:41:27;15.43;;;2.50;;
28028;SDS011;15345;59.364;18.016;2023-12-20T01:42:46;16.23;;;2.72;;
28028;SDS011;15345;59.364;18.016;2023-12-20T01:44:05;14.50;;;2.13;;
28028;SDS011;15345;59.364;18.016;2023-12-20T01:45:24;17.58;;;3.10;;
28028;SDS011;15345;59.364;18.016;2023-12-20T01:46:43;21.55;;;2.67;;
28028;SDS011;15345;59.364;18.016;2023-12-20T01:48:02;18.17;;;2.80;;
28028;SDS011;15345;59.364;18.016;2023-12-20T01:49:22;11.48;;;2.40;;
28028;SDS011;15345;59.364;18.016;2023-12-20T01:50:41;14.15;;;2.58;;
28028;SDS011;15345;59.364;18.016;2023-12-20T01:52:01;15.80;;;3.00;;
28028;SDS011;15345;59.364;18.016;2023-12-20T01:53:21;15.75;;;3.00;;
28028;SDS011;15345;59.364;18.016;2023-12-20T01:54:41;18.15;;;2.65;;
28028;SDS011;15345;59.364;18.016;2023-12-20T01:56:01;16.25;;;2.28;;
28028;SDS011;15345;59.364;18.016;2023-12-20T01:57:20;17.17;;;3.00;;
28028;SDS011;15345;59.364;18.016;2023-12-20T01:58:42;28.20;;;3.10;;
28028;SDS011;15345;59.364;18.016;2023-12-20T02:00:02;24.52;;;3.30;;
28028;SDS011;15345;59.364;18.016;2023-12-20T02:01:22;18.73;;;3.22;;
28028;SDS011;15345;59.364;18.016;2023-12-20T02:02:41;15.05;;;2.38;;
28028;SDS011;15345;59.364;18.016;2023-12-20T02:04:00;21.52;;;3.13;;
28028;SDS011;15345;59.364;18.016;2023-12-20T02:05:19;28.30;;;3.30;;
28028;SDS011;15345;59.364;18.016;2023-12-20T02:06:38;19.83;;;3.28;;
28028;SDS011;15345;59.364;18.016;2023-12-20T02:07:59;14.25;;;2.97;;
28028;SDS011;15345;59.364;18.016;2023-12-20T02:09:18;24.95;;;3.20;;
28028;SDS011;15345;59.364;18.016;2023-12-20T02:10:38;18.48;;;2.85;;
28028;SDS011;15345;59.364;18.016;2023-12-20T02:11:56;17.33;;;2.45;;
28028;SDS011;15345;59.364;18.016;2023-12-20T02:13:15;16.30;;;2.60;;
28028;SDS011;15345;59.364;18.016;2023-12-20T02:14:34;21.38;;;3.10;;
28028;SDS011;15345;59.364;18.016;2023-12-20T02:15:56;10.05;;;2.03;;
28028;SDS011;15345;59.364;18.016;2023-12-20T02:17:16;22.42;;;3.28;;
28028;SDS011;15345;59.364;18.016;2023-12-20T02:18:35;13.93;;;2.60;;
28028;SDS011;15345;59.364;18.016;2023-12-20T02:19:53;23.17;;;3.03;;
28028;SDS011;15345;59.364;18.016;2023-12-20T02:21:12;18.10;;;2.72;;
28028;SDS011;15345;59.364;18.016;2023-12-20T02:22:31;20.15;;;2.75;;
28028;SDS011;15345;59.364;18.016;2023-12-20T02:23:50;24.35;;;3.25;;
28028;SDS011;15345;59.364;18.016;2023-12-20T02:25:09;17.23;;;2.88;;
28028;SDS011;15345;59.364;18.016;2023-12-20T02:26:28;13.85;;;2.22;;
28028;SDS011;15345;59.364;18.016;2023-12-20T02:27:47;17.15;;;2.78;;
28028;SDS011;15345;59.364;18.016;2023-12-20T02:29:07;25.95;;;3.15;;
28028;SDS011;15345;59.364;18.016;2023-12-20T02:30:26;19.00;;;3.03;;
28028;SDS011;15345;59.364;18.016;2023-12-20T02:31:44;22.27;;;3.58;;
28028;SDS011;15345;59.364;18.016;2023-12-20T02:33:03;19.52;;;2.72;;
28028;SDS011;15345;59.364;18.016;2023-12-20T02:34:26;17.10;;;3.58;;
28028;SDS011;15345;59.364;18.016;2023-12-20T02:35:44;20.83;;;4.45;;
28028;SDS011;15345;59.364;18.016;2023-12-20T02:37:03;17.50;;;2.95;;
28028;SDS011;15345;59.364;18.016;2023-12-20T02:38:22;16.95;;;2.92;;
28028;SDS011;15345;59.364;18.016;2023-12-20T02:39:41;23.08;;;3.10;;
28028;SDS011;15345;59.364;18.016;2023-12-20T02:41:00;18.80;;;2.15;;
28028;SDS011;15345;59.364;18.016;2023-12-20T02:42:19;13.63;;;2.63;;
28028;SDS011;15345;59.364;18.016;2023-12-20T02:43:38;20.90;;;2.50;;
28028;SDS011;15345;59.364;18.016;2023-12-20T02:44:57;15.68;;;3.10;;
28028;SDS011;15345;59.364;18.016;2023-12-20T02:46:16;8.85;;;2.20;;
28028;SDS011;15345;59.364;18.016;2023-12-20T02:47:36;15.52;;;2.53;;
28028;SDS011;15345;59.364;18.016;2023-12-20T02:48:54;19.63;;;3.00;;
28028;SDS011;15345;59.364;18.016;2023-12-20T02:50:13;15.10;;;2.80;;
28028;SDS011;15345;59.364;18.016;2023-12-20T02:51:32;9.93;;;2.13;;
28028;SDS011;15345;59.364;18.016;2023-12-20T02:52:51;15.48;;;2.28;;
28028;SDS011;15345;59.364;18.016;2023-12-20T02:54:10;16.05;;;2.35;;
28028;SDS011;15345;59.364;18.016;2023-12-20T02:55:29;17.23;;;2.08;;
28028;SDS011;15345;59.364;18.016;2023-12-20T02:56:48;12.52;;;2.15;;
28028;SDS011;15345;59.364;18.016;2023-12-20T02:58:07;14.73;;;2.30;;
28028;SDS011;15345;59.364;18.016;2023-12-20T02:59:26;19.88;;;2.75;;
28028;SDS011;15345;59.364;18.016;2023-12-20T03:00:45;18.90;;;3.45;;
28028;SDS011;15345;59.364;18.016;2023-12-20T03:02:04;18.55;;;3.08;;
28028;SDS011;15345;59.364;18.016;2023-12-20T03:03:23;17.30;;;2.35;;
28028;SDS011;15345;59.364;18.016;2023-12-20T03:04:42;20.27;;;2.53;;
28028;SDS011;15345;59.364;18.016;2023-12-20T03:06:01;15.15;;;2.97;;
28028;SDS011;15345;59.364;18.016;2023-12-20T03:07:20;16.60;;;2.38;;
28028;SDS011;15345;59.364;18.016;2023-12-20T03:08:39;9.85;;;2.65;;
28028;SDS011;15345;59.364;18.016;2023-12-20T03:09:59;12.20;;;2.13;;
28028;SDS011;15345;59.364;18.016;2023-12-20T03:11:18;13.52;;;2.47;;
28028;SDS011;15345;59.364;18.016;2023-12-20T03:12:37;14.15;;;2.13;;
28028;SDS011;15345;59.364;18.016;2023-12-20T03:13:57;15.00;;;2.53;;
28028;SDS011;15345;59.364;18.016;2023-12-20T03:15:16;9.88;;;2.10;;
28028;SDS011;15345;59.364;18.016;2023-12-20T03:16:35;20.10;;;2.92;;
28028;SDS011;15345;59.364;18.016;2023-12-20T03:17:54;12.82;;;2.67;;
28028;SDS011;15345;59.364;18.016;2023-12-20T03:19:13;12.77;;;2.55;;
28028;SDS011;15345;59.364;18.016;2023-12-20T03:20:32;12.90;;;1.90;;
28028;SDS011;15345;59.364;18.016;2023-12-20T03:21:54;17.27;;;2.28;;
28028;SDS011;15345;59.364;18.016;2023-12-20T03:23:13;12.00;;;2.72;;
28028;SDS011;15345;59.364;18.016;2023-12-20T03:24:32;16.15;;;2.78;;
28028;SDS011;15345;59.364;18.016;2023-12-20T03:25:51;15.93;;;2.38;;
28028;SDS011;15345;59.364;18.016;2023-12-20T03:27:10;15.63;;;2.13;;
28028;SDS011;15345;59.364;18.016;2023-12-20T03:28:29;12.82;;;2.38;;
28028;SDS011;15345;59.364;18.016;2023-12-20T03:29:48;17.20;;;2.53;;
28028;SDS011;15345;59.364;18.016;2023-12-20T03:31:09;12.55;;;2.47;;
28028;SDS011;15345;59.364;18.016;2023-12-20T03:32:28;16.58;;;2.35;;
28028;SDS011;15345;59.364;18.016;2023-12-20T03:33:47;15.30;;;2.35;;
28028;SDS011;15345;59.364;18.016;2023-12-20T03:35:06;14.23;;;2.53;;
28028;SDS011;15345;59.364;18.016;2023-12-20T03:36:25;14.07;;;2.70;;
28028;SDS011;15345;59.364;18.016;2023-12-20T03:37:43;10.40;;;2.63;;
28028;SDS011;15345;59.364;18.016;2023-12-20T03:39:02;14.05;;;2.55;;
28028;SDS011;15345;59.364;18.016;2023-12-20T03:40:21;16.38;;;2.28;;
28028;SDS011;15345;59.364;18.016;2023-12-20T03:41:40;11.77;;;2.03;;
28028;SDS011;15345;59.364;18.016;2023-12-20T03:42:59;12.38;;;2.30;;
28028;SDS011;15345;59.364;18.016;2023-12-20T03:44:18;12.38;;;2.28;;
28028;SDS011;15345;59.364;18.016;2023-12-20T03:45:38;12.10;;;2.53;;
28028;SDS011;15345;59.364;18.016;2023-12-20T03:46:57;14.48;;;2.42;;
28028;SDS011;15345;59.364;18.016;2023-12-20T03:48:16;11.85;;;2.13;;
28028;SDS011;15345;59.364;18.016;2023-12-20T03:49:35;10.63;;;2.45;;
28028;SDS011;15345;59.364;18.016;2023-12-20T03:50:56;14.40;;;2.92;;
28028;SDS011;15345;59.364;18.016;2023-12-20T03:52:15;14.80;;;2.45;;
28028;SDS011;15345;59.364;18.016;2023-12-20T03:53:34;15.50;;;2.63;;
28028;SDS011;15345;59.364;18.016;2023-12-20T03:54:53;11.60;;;2.35;;
28028;SDS011;15345;59.364;18.016;2023-12-20T03:56:12;12.95;;;2.22;;
28028;SDS011;15345;59.364;18.016;2023-12-20T03:57:31;13.68;;;2.20;;
28028;SDS011;15345;59.364;18.016;2023-12-20T03:58:50;12.52;;;2.40;;
28028;SDS011;15345;59.364;18.016;2023-12-20T04:00:09;8.35;;;1.85;;
28028;SDS011;15345;59.364;18.016;2023-12-20T04:01:29;18.55;;;2.53;;
28028;SDS011;15345;59.364;18.016;2023-12-20T04:02:47;10.43;;;2.05;;
28028;SDS011;15345;59.364;18.016;2023-12-20T04:04:06;8.88;;;2.42;;
28028;SDS011;15345;59.364;18.016;2023-12-20T04:05:25;17.20;;;2.55;;
28028;SDS011;15345;59.364;18.016;2023-12-20T04:06:44;9.32;;;2.28;;
28028;SDS011;15345;59.364;18.016;2023-12-20T04:08:04;12.00;;;1.75;;
28028;SDS011;15345;59.364;18.016;2023-12-20T04:09:23;13.52;;;2.35;;
28028;SDS011;15345;59.364;18.016;2023-12-20T04:10:42;16.35;;;2.25;;
28028;SDS011;15345;59.364;18.016;2023-12-20T04:12:01;14.10;;;2.58;;
28028;SDS011;15345;59.364;18.016;2023-12-20T04:13:20;10.63;;;2.15;;
28028;SDS011;15345;59.364;18.016;2023-12-20T04:14:39;11.02;;;2.80;;
28028;SDS011;15345;59.364;18.016;2023-12-20T04:15:58;13.95;;;2.63;;
28028;SDS011;15345;59.364;18.016;2023-12-20T04:17:17;23.15;;;2.22;;
28028;SDS011;15345;59.364;18.016;2023-12-20T04:18:36;9.43;;;2.20;;
28028;SDS011;15345;59.364;18.016;2023-12-20T04:19:55;9.57;;;2.00;;
28028;SDS011;15345;59.364;18.016;2023-12-20T04:21:14;12.00;;;2.55;;
28028;SDS011;15345;59.364;18.016;2023-12-20T04:22:33;8.13;;;2.45;;
28028;SDS011;15345;59.364;18.016;2023-12-20T04:23:51;10.10;;;2.33;;
28028;SDS011;15345;59.364;18.016;2023-12-20T04:25:10;7.88;;;2.30;;
28028;SDS011;15345;59.364;18.016;2023-12-20T04:26:29;6.60;;;1.90;;
28028;SDS011;15345;59.364;18.016;2023-12-20T04:27:48;11.27;;;2.17;;
28028;SDS011;15345;59.364;18.016;2023-12-20T04:29:08;10.57;;;2.53;;
28028;SDS011;15345;59.364;18.016;2023-12-20T04:30:27;9.65;;;1.95;;
28028;SDS011;15345;59.364;18.016;2023-12-20T04:31:46;10.65;;;2.47;;
28028;SDS011;15345;59.364;18.016;2023-12-20T04:33:05;12.52;;;2.60;;
28028;SDS011;15345;59.364;18.016;2023-12-20T04:34:24;9.65;;;1.90;;
28028;SDS011;15345;59.364;18.016;2023-12-20T04:35:43;11.32;;;2.53;;
28028;SDS011;15345;59.364;18.016;2023-12-20T04:37:04;14.70;;;3.00;;
28028;SDS011;15345;59.364;18.016;2023-12-20T04:38:23;12.52;;;2.47;;
28028;SDS011;15345;59.364;18.016;2023-12-20T04:39:42;13.23;;;2.47;;
28028;SDS011;15345;59.364;18.016;2023-12-20T04:41:01;10.75;;;2.58;;
28028;SDS011;15345;59.364;18.016;2023-12-20T04:42:20;11.27;;;2.45;;
28028;SDS011;15345;59.364;18.016;2023-12-20T04:43:39;16.38;;;2.70;;
28028;SDS011;15345;59.364;18.016;2023-12-20T04:44:58;6.25;;;2.30;;
28028;SDS011;15345;59.364;18.016;2023-12-20T04:46:17;7.32;;;2.33;;
28028;SDS011;15345;59.364;18.016;2023-12-20T04:47:36;6.20;;;1.98;;
28028;SDS011;15345;59.364;18.016;2023-12-20T04:48:55;6.63;;;2.30;;
28028;SDS011;15345;59.364;18.016;2023-12-20T04:50:14;8.98;;;1.95;;
28028;SDS011;15345;59.364;18.016;2023-12-20T04:51:34;11.93;;;2.70;;
28028;SDS011;15345;59.364;18.016;2023-12-20T04:52:53;6.70;;;2.20;;
28028;SDS011;15345;59.364;18.016;2023-12-20T04:54:12;12.27;;;2.47;;
28028;SDS011;15345;59.364;18.016;2023-12-20T04:55:32;8.90;;;2.28;;
28028;SDS011;15345;59.364;18.016;2023-12-20T04:56:50;13.13;;;2.30;;
28028;SDS011;15345;59.364;18.016;2023-12-20T04:58:09;12.80;;;2.58;;
28028;SDS011;15345;59.364;18.016;2023-12-20T04:59:28;13.93;;;2.70;;
28028;SDS011;15345;59.364;18.016;2023-12-20T05:00:47;12.73;;;2.33;;
28028;SDS011;15345;59.364;18.016;2023-12-20T05:02:06;8.65;;;2.50;;
28028;SDS011;15345;59.364;18.016;2023-12-20T05:03:25;9.13;;;2.38;;
28028;SDS011;15345;59.364;18.016;2023-12-20T05:04:44;13.35;;;2.33;;
28028;SDS011;15345;59.364;18.016;2023-12-20T05:06:03;9.35;;;2.08;;
28028;SDS011;15345;59.364;18.016;2023-12-20T05:07:22;9.57;;;2.40;;
28028;SDS011;15345;59.364;18.016;2023-12-20T05:08:41;17.50;;;2.88;;
28028;SDS011;15345;59.364;18.016;2023-12-20T05:10:00;8.23;;;2.47;;
28028;SDS011;15345;59.364;18.016;2023-12-20T05:11:20;8.48;;;2.42;;
28028;SDS011;15345;59.364;18.016;2023-12-20T05:12:39;11.43;;;2.50;;
28028;SDS011;15345;59.364;18.016;2023-12-20T05:13:58;10.50;;;2.28;;
28028;SDS011;15345;59.364;18.016;2023-12-20T05:15:17;8.63;;;2.55;;
28028;SDS011;15345;59.364;18.016;2023-12-20T05:16:36;9.02;;;2.72;;
28028;SDS011;15345;59.364;18.016;2023-12-20T05:17:55;9.00;;;2.10;;
28028;SDS011;15345;59.364;18.016;2023-12-20T05:19:14;9.70;;;2.42;;
28028;SDS011;15345;59.364;18.016;2023-12-20T05:20:32;13.95;;;2.63;;
28028;SDS011;15345;59.364;18.016;2023-12-20T05:21:51;8.43;;;3.08;;
28028;SDS011;15345;59.364;18.016;2023-12-20T05:23:10;26.05;;;3.40;;
28028;SDS011;15345;59.364;18.016;2023-12-20T05:24:30;8.90;;;2.50;;
28028;SDS011;15345;59.364;18.016;2023-12-20T05:25:49;11.23;;;2.65;;
28028;SDS011;15345;59.364;18.016;2023-12-20T05:27:08;14.00;;;2.42;;
28028;SDS011;15345;59.364;18.016;2023-12-20T05:28:28;9.20;;;2.33;;
28028;SDS011;15345;59.364;18.016;2023-12-20T05:29:47;9.35;;;2.42;;
28028;SDS011;15345;59.364;18.016;2023-12-20T05:31:06;9.63;;;2.50;;
28028;SDS011;15345;59.364;18.016;2023-12-20T05:32:26;11.40;;;2.88;;
28028;SDS011;15345;59.364;18.016;2023-12-20T05:33:44;6.93;;;2.33;;
28028;SDS011;15345;59.364;18.016;2023-12-20T05:35:04;13.25;;;2.60;;
28028;SDS011;15345;59.364;18.016;2023-12-20T05:36:23;14.10;;;3.28;;
28028;SDS011;15345;59.364;18.016;2023-12-20T05:37:42;14.95;;;3.42;;
28028;SDS011;15345;59.364;18.016;2023-12-20T05:39:01;9.15;;;2.67;;
28028;SDS011;15345;59.364;18.016;2023-12-20T05:40:22;7.40;;;2.90;;
28028;SDS011;15345;59.364;18.016;2023-12-20T05:41:41;10.40;;;2.28;;
28028;SDS011;15345;59.364;18.016;2023-12-20T05:42:59;7.88;;;2.45;;
28028;SDS011;15345;59.364;18.016;2023-12-20T05:44:18;15.80;;;3.15;;
28028;SDS011;15345;59.364;18.016;2023-12-20T05:45:37;10.07;;;2.75;;
28028;SDS011;15345;59.364;18.016;2023-12-20T05:46:56;12.05;;;2.25;;
28028;SDS011;15345;59.364;18.016;2023-12-20T05:48:15;11.35;;;2.70;;
28028;SDS011;15345;59.364;18.016;2023-12-20T05:49:34;10.45;;;2.95;;
28028;SDS011;15345;59.364;18.016;2023-12-20T05:50:54;8.70;;;2.85;;
28028;SDS011;15345;59.364;18.016;2023-12-20T05:52:13;7.43;;;2.60;;
28028;SDS011;15345;59.364;18.016;2023-12-20T05:53:32;7.30;;;2.70;;
28028;SDS011;15345;59.364;18.016;2023-12-20T05:54:51;12.55;;;3.13;;
28028;SDS011;15345;59.364;18.016;2023-12-20T05:56:11;7.75;;;2.85;;
28028;SDS011;15345;59.364;18.016;2023-12-20T05:57:30;13.07;;;2.88;;
28028;SDS011;15345;59.364;18.016;2023-12-20T05:58:49;12.65;;;3.08;;
28028;SDS011;15345;59.364;18.016;2023-12-20T06:00:08;15.70;;;3.20;;
28028;SDS011;15345;59.364;18.016;2023-12-20T06:01:28;11.20;;;3.28;;
28028;SDS011;15345;59.364;18.016;2023-12-20T06:02:47;13.40;;;3.22;;
28028;SDS011;15345;59.364;18.016;2023-12-20T06:04:06;15.30;;;3.60;;
28028;SDS011;15345;59.364;18.016;2023-12-20T06:05:25;13.10;;;3.13;;
28028;SDS011;15345;59.364;18.016;2023-12-20T06:06:44;7.97;;;3.05;;
28028;SDS011;15345;59.364;18.016;2023-12-20T06:08:03;15.43;;;3.35;;
28028;SDS011;15345;59.364;18.016;2023-12-20T06:09:23;25.30;;;4.07;;
28028;SDS011;15345;59.364;18.016;2023-12-20T06:10:42;30.40;;;3.90;;
28028;SDS011;15345;59.364;18.016;2023-12-20T06:12:01;11.27;;;3.50;;
28028;SDS011;15345;59.364;18.016;2023-12-20T06:13:19;18.67;;;4.22;;
28028;SDS011;15345;59.364;18.016;2023-12-20T06:14:38;22.27;;;4.43;;
28028;SDS011;15345;59.364;18.016;2023-12-20T06:15:57;18.33;;;4.30;;
28028;SDS011;15345;59.364;18.016;2023-12-20T06:17:16;16.13;;;4.03;;
28028;SDS011;15345;59.364;18.016;2023-12-20T06:18:35;35.63;;;4.20;;
28028;SDS011;15345;59.364;18.016;2023-12-20T06:19:55;14.07;;;3.67;;
28028;SDS011;15345;59.364;18.016;2023-12-20T06:21:14;18.13;;;4.28;;
28028;SDS011;15345;59.364;18.016;2023-12-20T06:22:34;36.70;;;4.43;;
28028;SDS011;15345;59.364;18.016;2023-12-20T06:23:53;22.52;;;4.20;;
28028;SDS011;15345;59.364;18.016;2023-12-20T06:25:12;33.60;;;4.57;;
28028;SDS011;15345;59.364;18.016;2023-12-20T06:26:31;25.90;;;4.82;;
28028;SDS011;15345;59.364;18.016;2023-12-20T06:27:50;20.88;;;4.40;;
28028;SDS011;15345;59.364;18.016;2023-12-20T06:29:09;33.75;;;4.63;;
28028;SDS011;15345;59.364;18.016;2023-12-20T06:30:28;30.40;;;5.20;;
28028;SDS011;15345;59.364;18.016;2023-12-20T06:31:47;33.03;;;5.10;;
28028;SDS011;15345;59.364;18.016;2023-12-20T06:33:06;25.38;;;4.55;;
28028;SDS011;15345;59.364;18.016;2023-12-20T06:34:25;30.80;;;5.45;;
28028;SDS011;15345;59.364;18.016;2023-12-20T06:35:44;39.33;;;4.72;;
28028;SDS011;15345;59.364;18.016;2023-12-20T06:37:03;39.17;;;4.53;;
28028;SDS011;15345;59.364;18.016;2023-12-20T06:38:24;44.60;;;5.57;;
28028;SDS011;15345;59.364;18.016;2023-12-20T06:39:42;32.67;;;4.80;;
28028;SDS011;15345;59.364;18.016;2023-12-20T06:41:01;41.70;;;4.97;;
28028;SDS011;15345;59.364;18.016;2023-12-20T06:42:20;32.17;;;4.75;;
28028;SDS011;15345;59.364;18.016;2023-12-20T06:43:39;44.70;;;4.93;;
28028;SDS011;15345;59.364;18.016;2023-12-20T06:44:59;44.85;;;5.32;;
28028;SDS011;15345;59.364;18.016;2023-12-20T06:46:18;62.45;;;6.00;;
28028;SDS011;15345;59.364;18.016;2023-12-20T06:47:37;31.02;;;5.70;;
28028;SDS011;15345;59.364;18.016;2023-12-20T06:48:56;19.63;;;5.47;;
28028;SDS011;15345;59.364;18.016;2023-12-20T06:50:15;65.10;;;5.93;;
28028;SDS011;15345;59.364;18.016;2023-12-20T06:51:34;32.15;;;5.55;;
28028;SDS011;15345;59.364;18.016;2023-12-20T06:52:53;26.58;;;6.15;;
28028;SDS011;15345;59.364;18.016;2023-12-20T06:54:12;24.63;;;6.55;;
28028;SDS011;15345;59.364;18.016;2023-12-20T06:55:31;53.13;;;6.78;;
28028;SDS011;15345;59.364;18.016;2023-12-20T06:56:49;45.67;;;7.05;;
28028;SDS011;15345;59.364;18.016;2023-12-20T06:58:08;33.85;;;5.32;;
28028;SDS011;15345;59.364;18.016;2023-12-20T06:59:28;37.30;;;5.15;;
28028;SDS011;15345;59.364;18.016;2023-12-20T07:00:56;68.60;;;4.93;;
28028;SDS011;15345;59.364;18.016;2023-12-20T07:02:15;18.25;;;3.15;;
28028;SDS011;15345;59.364;18.016;2023-12-20T07:03:34;59.13;;;5.55;;
28028;SDS011;15345;59.364;18.016;2023-12-20T07:04:53;62.75;;;4.70;;
28028;SDS011;15345;59.364;18.016;2023-12-20T07:06:12;22.17;;;3.97;;
28028;SDS011;15345;59.364;18.016;2023-12-20T07:07:31;49.80;;;5.47;;
28028;SDS011;15345;59.364;18.016;2023-12-20T07:08:50;28.60;;;4.90;;
28028;SDS011;15345;59.364;18.016;2023-12-20T07:10:08;38.22;;;4.65;;
28028;SDS011;15345;59.364;18.016;2023-12-20T07:11:27;52.53;;;5.25;;
28028;SDS011;15345;59.364;18.016;2023-12-20T07:12:46;59.28;;;6.22;;
28028;SDS011;15345;59.364;18.016;2023-12-20T07:14:07;20.08;;;4.20;;
28028;SDS011;15345;59.364;18.016;2023-12-20T07:15:26;29.13;;;5.50;;
28028;SDS011;15345;59.364;18.016;2023-12-20T07:16:45;18.90;;;5.65;;
28028;SDS011;15345;59.364;18.016;2023-12-20T07:18:04;17.13;;;4.68;;
28028;SDS011;15345;59.364;18.016;2023-12-20T07:19:25;22.27;;;5.05;;
28028;SDS011;15345;59.364;18.016;2023-12-20T07:20:44;14.40;;;5.18;;
28028;SDS011;15345;59.364;18.016;2023-12-20T07:22:03;19.95;;;5.28;;
28028;SDS011;15345;59.364;18.016;2023-12-20T07:23:22;23.48;;;5.78;;
28028;SDS011;15345;59.364;18.016;2023-12-20T07:24:41;18.33;;;5.07;;
28028;SDS011;15345;59.364;18.016;2023-12-20T07:26:00;11.38;;;5.55;;
28028;SDS011;15345;59.364;18.016;2023-12-20T07:27:19;22.83;;;6.88;;
28028;SDS011;15345;59.364;18.016;2023-12-20T07:28:38;22.65;;;7.13;;
28028;SDS011;15345;59.364;18.016;2023-12-20T07:29:57;31.27;;;7.20;;
28028;SDS011;15345;59.364;18.016;2023-12-20T07:31:16;23.77;;;7.88;;
28028;SDS011;15345;59.364;18.016;2023-12-20T07:32:35;16.83;;;7.32;;
28028;SDS011;15345;59.364;18.016;2023-12-20T07:33:54;23.75;;;7.57;;
28028;SDS011;15345;59.364;18.016;2023-12-20T07:35:13;19.55;;;7.45;;
28028;SDS011;15345;59.364;18.016;2023-12-20T07:36:31;20.02;;;7.35;;
28028;SDS011;15345;59.364;18.016;2023-12-20T07:37:50;23.77;;;8.23;;
28028;SDS011;15345;59.364;18.016;2023-12-20T07:39:10;27.33;;;7.82;;
28028;SDS011;15345;59.364;18.016;2023-12-20T07:40:30;28.42;;;9.45;;
28028;SDS011;15345;59.364;18.016;2023-12-20T07:41:49;31.45;;;8.85;;
28028;SDS011;15345;59.364;18.016;2023-12-20T07:43:08;29.98;;;7.95;;
28028;SDS011;15345;59.364;18.016;2023-12-20T07:44:27;24.17;;;8.35;;